sensor_id;sensor_type;location;lat;lon;timestamp;P1;durP1;ratioP1;P2;durP2;ratioP2
40609;SDS011;26316;55.976;37.140;2023-03-03T00:01:08;5.25;;;1.75;;
40609;SDS011;26316;55.976;37.140;2023-03-03T00:03:33;3.08;;;1.30;;
40609;SDS011;26316;55.976;37.140;2023-03-03T00:05:59;7.93;;;2.13;;
40609;SDS011;26316;55.976;37.140;2023-03-03T00:08:27;2.88;;;1.70;;
40609;SDS011;26316;55.976;37.140;2023-03-03T00:10:53;4.45;;;1.70;;
40609;SDS011;26316;55.976;37.140;2023-03-03T00:13:20;4.45;;;1.60;;
40609;SDS011;26316;55.976;37.140;2023-03-03T00:15:47;4.03;;;1.55;;
40609;SDS011;26316;55.976;37.140;2023-03-03T00:20:51;4.50;;;1.38;;
40609;SDS011;26316;55.976;37.140;2023-03-03T00:23:29;4.88;;;1.52;;
40609;SDS011;26316;55.976;37.140;2023-03-03T00:25:58;5.95;;;1.92;;
40609;SDS011;26316;55.976;37.140;2023-03-03T00:28:25;4.63;;;1.38;;
40609;SDS011;26316;55.976;37.140;2023-03-03T00:30:55;3.42;;;1.38;;
40609;SDS011;26316;55.976;37.140;2023-03-03T00:36:21;3.10;;;1.33;;
40609;SDS011;26316;55.976;37.140;2023-03-03T00:38:59;3.75;;;1.10;;
40609;SDS011;26316;55.976;37.140;2023-03-03T00:41:38;3.65;;;1.85;;
40609;SDS011;26316;55.976;37.140;2023-03-03T00:47:28;5.60;;;1.63;;
40609;SDS011;26316;55.976;37.140;2023-03-03T00:52:32;3.72;;;1.10;;
40609;SDS011;26316;55.976;37.140;2023-03-03T00:55:00;6.70;;;1.42;;
40609;SDS011;26316;55.976;37.140;2023-03-03T00:57:28;4.18;;;1.60;;
40609;SDS011;26316;55.976;37.140;2023-03-03T00:59:55;3.30;;;1.48;;
40609;SDS011;26316;55.976;37.140;2023-03-03T01:02:21;4.20;;;1.48;;
40609;SDS011;26316;55.976;37.140;2023-03-03T01:04:48;5.57;;;1.52;;
40609;SDS011;26316;55.976;37.140;2023-03-03T01:07:15;4.23;;;1.10;;
40609;SDS011;26316;55.976;37.140;2023-03-03T01:09:41;3.17;;;1.10;;
40609;SDS011;26316;55.976;37.140;2023-03-03T01:12:07;3.20;;;1.13;;
40609;SDS011;26316;55.976;37.140;2023-03-03T01:14:34;2.38;;;0.98;;
40609;SDS011;26316;55.976;37.140;2023-03-03T01:17:00;3.28;;;1.13;;
40609;SDS011;26316;55.976;37.140;2023-03-03T01:19:26;5.05;;;1.40;;
40609;SDS011;26316;55.976;37.140;2023-03-03T01:21:52;6.15;;;1.15;;
40609;SDS011;26316;55.976;37.140;2023-03-03T01:24:17;2.90;;;1.33;;
40609;SDS011;26316;55.976;37.140;2023-03-03T01:26:43;5.10;;;1.67;;
40609;SDS011;26316;55.976;37.140;2023-03-03T01:29:09;4.68;;;1.10;;
40609;SDS011;26316;55.976;37.140;2023-03-03T01:31:35;2.97;;;1.20;;
40609;SDS011;26316;55.976;37.140;2023-03-03T01:34:00;4.57;;;1.30;;
40609;SDS011;26316;55.976;37.140;2023-03-03T01:36:26;5.35;;;1.10;;
40609;SDS011;26316;55.976;37.140;2023-03-03T01:38:53;3.92;;;1.27;;
40609;SDS011;26316;55.976;37.140;2023-03-03T01:41:19;3.28;;;1.08;;
40609;SDS011;26316;55.976;37.140;2023-03-03T01:43:46;4.38;;;1.85;;
40609;SDS011;26316;55.976;37.140;2023-03-03T01:48:49;4.97;;;1.55;;
40609;SDS011;26316;55.976;37.140;2023-03-03T01:51:21;5.10;;;1.58;;
40609;SDS011;26316;55.976;37.140;2023-03-03T01:53:49;3.55;;;1.40;;
40609;SDS011;26316;55.976;37.140;2023-03-03T01:56:17;4.15;;;1.38;;
40609;SDS011;26316;55.976;37.140;2023-03-03T01:58:44;5.43;;;1.27;;
40609;SDS011;26316;55.976;37.140;2023-03-03T02:01:19;4.20;;;1.20;;
40609;SDS011;26316;55.976;37.140;2023-03-03T02:03:46;7.43;;;1.50;;
40609;SDS011;26316;55.976;37.140;2023-03-03T02:06:13;4.80;;;1.30;;
40609;SDS011;26316;55.976;37.140;2023-03-03T02:08:51;4.07;;;1.23;;
40609;SDS011;26316;55.976;37.140;2023-03-03T02:11:19;3.95;;;1.38;;
40609;SDS011;26316;55.976;37.140;2023-03-03T02:13:46;2.95;;;1.38;;
40609;SDS011;26316;55.976;37.140;2023-03-03T02:16:11;2.78;;;1.58;;
40609;SDS011;26316;55.976;37.140;2023-03-03T02:18:37;3.28;;;1.27;;
40609;SDS011;26316;55.976;37.140;2023-03-03T02:21:05;3.05;;;1.25;;
40609;SDS011;26316;55.976;37.140;2023-03-03T02:26:21;6.13;;;1.52;;
40609;SDS011;26316;55.976;37.140;2023-03-03T02:28:52;4.80;;;1.77;;
40609;SDS011;26316;55.976;37.140;2023-03-03T02:31:20;5.88;;;1.42;;
40609;SDS011;26316;55.976;37.140;2023-03-03T02:33:48;3.40;;;1.58;;
40609;SDS011;26316;55.976;37.140;2023-03-03T02:36:19;5.65;;;1.60;;
40609;SDS011;26316;55.976;37.140;2023-03-03T02:41:34;3.08;;;1.40;;
40609;SDS011;26316;55.976;37.140;2023-03-03T02:44:06;4.70;;;2.00;;
40609;SDS011;26316;55.976;37.140;2023-03-03T02:46:43;2.92;;;1.45;;
40609;SDS011;26316;55.976;37.140;2023-03-03T02:49:11;6.47;;;2.03;;
40609;SDS011;26316;55.976;37.140;2023-03-03T02:51:40;5.65;;;2.10;;
40609;SDS011;26316;55.976;37.140;2023-03-03T02:54:07;6.57;;;2.00;;
40609;SDS011;26316;55.976;37.140;2023-03-03T02:56:34;5.10;;;1.80;;
40609;SDS011;26316;55.976;37.140;2023-03-03T02:59:01;6.28;;;1.95;;
40609;SDS011;26316;55.976;37.140;2023-03-03T03:01:30;4.72;;;1.40;;
40609;SDS011;26316;55.976;37.140;2023-03-03T03:04:12;4.85;;;1.60;;
40609;SDS011;26316;55.976;37.140;2023-03-03T03:06:48;3.80;;;1.48;;
40609;SDS011;26316;55.976;37.140;2023-03-03T03:09:16;3.53;;;1.75;;
40609;SDS011;26316;55.976;37.140;2023-03-03T03:11:43;6.05;;;1.80;;
40609;SDS011;26316;55.976;37.140;2023-03-03T03:14:10;5.47;;;1.42;;
40609;SDS011;26316;55.976;37.140;2023-03-03T03:16:37;5.15;;;2.03;;
40609;SDS011;26316;55.976;37.140;2023-03-03T03:19:03;3.00;;;1.27;;
40609;SDS011;26316;55.976;37.140;2023-03-03T03:21:30;3.58;;;1.58;;
40609;SDS011;26316;55.976;37.140;2023-03-03T03:23:57;2.65;;;1.50;;
40609;SDS011;26316;55.976;37.140;2023-03-03T03:26:23;4.53;;;1.52;;
40609;SDS011;26316;55.976;37.140;2023-03-03T03:28:50;3.83;;;1.70;;
40609;SDS011;26316;55.976;37.140;2023-03-03T03:31:16;3.13;;;1.40;;
40609;SDS011;26316;55.976;37.140;2023-03-03T03:33:43;3.53;;;1.55;;
40609;SDS011;26316;55.976;37.140;2023-03-03T03:36:09;4.43;;;1.80;;
40609;SDS011;26316;55.976;37.140;2023-03-03T03:38:36;4.28;;;1.38;;
40609;SDS011;26316;55.976;37.140;2023-03-03T03:41:03;2.25;;;1.38;;
40609;SDS011;26316;55.976;37.140;2023-03-03T03:43:30;3.65;;;1.70;;
40609;SDS011;26316;55.976;37.140;2023-03-03T03:45:57;6.22;;;1.90;;
40609;SDS011;26316;55.976;37.140;2023-03-03T03:48:24;5.25;;;2.22;;
40609;SDS011;26316;55.976;37.140;2023-03-03T03:50:50;6.82;;;3.15;;
40609;SDS011;26316;55.976;37.140;2023-03-03T03:53:16;7.28;;;4.25;;
40609;SDS011;26316;55.976;37.140;2023-03-03T03:55:43;6.07;;;2.88;;
40609;SDS011;26316;55.976;37.140;2023-03-03T03:58:13;4.05;;;2.25;;
40609;SDS011;26316;55.976;37.140;2023-03-03T04:00:42;3.53;;;1.90;;
40609;SDS011;26316;55.976;37.140;2023-03-03T04:03:09;4.28;;;1.90;;
40609;SDS011;26316;55.976;37.140;2023-03-03T04:05:36;4.00;;;1.98;;
40609;SDS011;26316;55.976;37.140;2023-03-03T04:08:02;4.28;;;1.80;;
40609;SDS011;26316;55.976;37.140;2023-03-03T04:10:28;3.85;;;2.10;;
40609;SDS011;26316;55.976;37.140;2023-03-03T04:12:56;3.08;;;1.70;;
40609;SDS011;26316;55.976;37.140;2023-03-03T04:15:23;6.60;;;1.83;;
40609;SDS011;26316;55.976;37.140;2023-03-03T04:17:49;4.97;;;2.03;;
40609;SDS011;26316;55.976;37.140;2023-03-03T04:20:15;7.00;;;2.67;;
40609;SDS011;26316;55.976;37.140;2023-03-03T04:22:43;4.85;;;2.55;;
40609;SDS011;26316;55.976;37.140;2023-03-03T04:25:11;5.25;;;2.60;;
40609;SDS011;26316;55.976;37.140;2023-03-03T04:27:40;5.80;;;3.08;;
40609;SDS011;26316;55.976;37.140;2023-03-03T04:30:08;4.53;;;2.25;;
40609;SDS011;26316;55.976;37.140;2023-03-03T04:32:36;3.88;;;1.70;;
40609;SDS011;26316;55.976;37.140;2023-03-03T04:35:04;8.40;;;2.35;;
40609;SDS011;26316;55.976;37.140;2023-03-03T04:37:31;7.25;;;2.45;;
40609;SDS011;26316;55.976;37.140;2023-03-03T04:39:57;5.97;;;2.65;;
40609;SDS011;26316;55.976;37.140;2023-03-03T04:42:23;7.70;;;2.60;;
40609;SDS011;26316;55.976;37.140;2023-03-03T04:44:49;5.13;;;2.50;;
40609;SDS011;26316;55.976;37.140;2023-03-03T04:47:15;6.07;;;2.88;;
40609;SDS011;26316;55.976;37.140;2023-03-03T04:49:41;7.88;;;2.80;;
40609;SDS011;26316;55.976;37.140;2023-03-03T04:52:07;6.00;;;2.35;;
40609;SDS011;26316;55.976;37.140;2023-03-03T04:54:35;5.32;;;2.70;;
40609;SDS011;26316;55.976;37.140;2023-03-03T04:57:00;7.63;;;2.70;;
40609;SDS011;26316;55.976;37.140;2023-03-03T04:59:26;3.83;;;2.33;;
40609;SDS011;26316;55.976;37.140;2023-03-03T05:01:52;5.45;;;2.28;;
40609;SDS011;26316;55.976;37.140;2023-03-03T05:04:17;6.68;;;2.72;;
40609;SDS011;26316;55.976;37.140;2023-03-03T05:06:43;7.93;;;2.50;;
40609;SDS011;26316;55.976;37.140;2023-03-03T05:09:09;6.55;;;2.25;;
40609;SDS011;26316;55.976;37.140;2023-03-03T05:11:35;7.47;;;2.40;;
40609;SDS011;26316;55.976;37.140;2023-03-03T05:14:00;7.10;;;2.50;;
40609;SDS011;26316;55.976;37.140;2023-03-03T05:16:27;7.00;;;2.50;;
40609;SDS011;26316;55.976;37.140;2023-03-03T05:18:53;6.10;;;3.10;;
40609;SDS011;26316;55.976;37.140;2023-03-03T05:21:19;9.00;;;2.92;;
40609;SDS011;26316;55.976;37.140;2023-03-03T05:23:45;9.15;;;2.88;;
40609;SDS011;26316;55.976;37.140;2023-03-03T05:26:10;7.88;;;3.08;;
40609;SDS011;26316;55.976;37.140;2023-03-03T05:28:36;7.53;;;2.60;;
40609;SDS011;26316;55.976;37.140;2023-03-03T05:31:02;9.18;;;2.88;;
40609;SDS011;26316;55.976;37.140;2023-03-03T05:33:27;4.88;;;2.45;;
40609;SDS011;26316;55.976;37.140;2023-03-03T05:35:54;9.23;;;3.10;;
40609;SDS011;26316;55.976;37.140;2023-03-03T05:38:20;5.03;;;2.08;;
40609;SDS011;26316;55.976;37.140;2023-03-03T05:40:46;7.78;;;2.50;;
40609;SDS011;26316;55.976;37.140;2023-03-03T05:43:12;6.05;;;2.50;;
40609;SDS011;26316;55.976;37.140;2023-03-03T05:45:38;8.93;;;2.92;;
40609;SDS011;26316;55.976;37.140;2023-03-03T05:48:04;9.98;;;3.83;;
40609;SDS011;26316;55.976;37.140;2023-03-03T05:50:30;8.38;;;3.08;;
40609;SDS011;26316;55.976;37.140;2023-03-03T05:52:56;10.70;;;2.30;;
40609;SDS011;26316;55.976;37.140;2023-03-03T05:55:22;9.30;;;2.80;;
40609;SDS011;26316;55.976;37.140;2023-03-03T05:57:48;6.88;;;2.72;;
40609;SDS011;26316;55.976;37.140;2023-03-03T06:00:14;4.95;;;2.10;;
40609;SDS011;26316;55.976;37.140;2023-03-03T06:02:40;5.18;;;1.90;;
40609;SDS011;26316;55.976;37.140;2023-03-03T06:05:06;5.43;;;2.03;;
40609;SDS011;26316;55.976;37.140;2023-03-03T06:07:32;6.70;;;2.47;;
40609;SDS011;26316;55.976;37.140;2023-03-03T06:09:58;4.63;;;1.90;;
40609;SDS011;26316;55.976;37.140;2023-03-03T06:12:25;6.82;;;2.13;;
40609;SDS011;26316;55.976;37.140;2023-03-03T06:14:51;6.75;;;2.17;;
40609;SDS011;26316;55.976;37.140;2023-03-03T06:17:16;6.80;;;2.17;;
40609;SDS011;26316;55.976;37.140;2023-03-03T06:19:42;6.78;;;2.38;;
40609;SDS011;26316;55.976;37.140;2023-03-03T06:22:08;5.68;;;2.13;;
40609;SDS011;26316;55.976;37.140;2023-03-03T06:24:34;7.03;;;1.75;;
40609;SDS011;26316;55.976;37.140;2023-03-03T06:27:00;6.18;;;1.90;;
40609;SDS011;26316;55.976;37.140;2023-03-03T06:29:26;7.43;;;2.10;;
40609;SDS011;26316;55.976;37.140;2023-03-03T06:31:52;6.38;;;1.67;;
40609;SDS011;26316;55.976;37.140;2023-03-03T06:34:17;6.32;;;1.88;;
40609;SDS011;26316;55.976;37.140;2023-03-03T06:36:43;10.77;;;2.10;;
40609;SDS011;26316;55.976;37.140;2023-03-03T06:39:09;6.18;;;1.85;;
40609;SDS011;26316;55.976;37.140;2023-03-03T06:41:35;4.93;;;1.88;;
40609;SDS011;26316;55.976;37.140;2023-03-03T06:44:01;6.97;;;2.17;;
40609;SDS011;26316;55.976;37.140;2023-03-03T06:46:27;5.78;;;1.95;;
40609;SDS011;26316;55.976;37.140;2023-03-03T06:48:53;3.72;;;1.80;;
40609;SDS011;26316;55.976;37.140;2023-03-03T06:53:53;3.83;;;1.50;;
40609;SDS011;26316;55.976;37.140;2023-03-03T06:56:21;5.15;;;1.77;;
40609;SDS011;26316;55.976;37.140;2023-03-03T06:58:48;5.47;;;1.75;;
40609;SDS011;26316;55.976;37.140;2023-03-03T07:01:16;6.57;;;1.58;;
40609;SDS011;26316;55.976;37.140;2023-03-03T07:03:42;8.65;;;1.98;;
40609;SDS011;26316;55.976;37.140;2023-03-03T07:06:25;5.00;;;1.98;;
40609;SDS011;26316;55.976;37.140;2023-03-03T07:08:53;6.03;;;1.85;;
40609;SDS011;26316;55.976;37.140;2023-03-03T07:11:21;4.03;;;1.50;;
40609;SDS011;26316;55.976;37.140;2023-03-03T07:13:49;3.40;;;2.10;;
40609;SDS011;26316;55.976;37.140;2023-03-03T07:16:16;5.20;;;1.83;;
40609;SDS011;26316;55.976;37.140;2023-03-03T07:18:49;11.05;;;2.15;;
40609;SDS011;26316;55.976;37.140;2023-03-03T07:23:51;3.17;;;1.80;;
40609;SDS011;26316;55.976;37.140;2023-03-03T07:26:19;6.95;;;1.85;;
40609;SDS011;26316;55.976;37.140;2023-03-03T07:28:54;3.90;;;1.73;;
40609;SDS011;26316;55.976;37.140;2023-03-03T07:31:27;9.10;;;2.00;;
40609;SDS011;26316;55.976;37.140;2023-03-03T07:33:56;3.83;;;1.70;;
40609;SDS011;26316;55.976;37.140;2023-03-03T07:41:21;6.38;;;2.38;;
40609;SDS011;26316;55.976;37.140;2023-03-03T07:43:52;7.88;;;2.20;;
40609;SDS011;26316;55.976;37.140;2023-03-03T07:46:41;7.18;;;1.70;;
40609;SDS011;26316;55.976;37.140;2023-03-03T07:51:39;5.65;;;1.65;;
40609;SDS011;26316;55.976;37.140;2023-03-03T07:56:54;3.65;;;1.30;;
40609;SDS011;26316;55.976;37.140;2023-03-03T07:59:25;5.82;;;1.58;;
40609;SDS011;26316;55.976;37.140;2023-03-03T08:01:55;5.22;;;1.45;;
40609;SDS011;26316;55.976;37.140;2023-03-03T08:04:23;6.28;;;2.00;;
40609;SDS011;26316;55.976;37.140;2023-03-03T08:07:18;3.38;;;1.45;;
40609;SDS011;26316;55.976;37.140;2023-03-03T08:09:48;3.30;;;1.63;;
40609;SDS011;26316;55.976;37.140;2023-03-03T08:12:23;3.65;;;1.50;;
40609;SDS011;26316;55.976;37.140;2023-03-03T08:14:55;4.90;;;1.40;;
40609;SDS011;26316;55.976;37.140;2023-03-03T08:17:23;5.25;;;1.60;;
40609;SDS011;26316;55.976;37.140;2023-03-03T08:19:52;2.67;;;1.45;;
40609;SDS011;26316;55.976;37.140;2023-03-03T08:22:18;3.92;;;1.60;;
40609;SDS011;26316;55.976;37.140;2023-03-03T08:24:54;4.32;;;1.77;;
40609;SDS011;26316;55.976;37.140;2023-03-03T08:27:20;2.70;;;1.30;;
40609;SDS011;26316;55.976;37.140;2023-03-03T08:29:45;3.75;;;1.70;;
40609;SDS011;26316;55.976;37.140;2023-03-03T08:32:11;3.65;;;1.50;;
40609;SDS011;26316;55.976;37.140;2023-03-03T08:34:37;3.08;;;1.35;;
40609;SDS011;26316;55.976;37.140;2023-03-03T08:37:02;3.58;;;1.55;;
40609;SDS011;26316;55.976;37.140;2023-03-03T08:39:28;3.33;;;1.50;;
40609;SDS011;26316;55.976;37.140;2023-03-03T08:41:54;5.70;;;1.52;;
40609;SDS011;26316;55.976;37.140;2023-03-03T08:44:19;5.75;;;1.63;;
40609;SDS011;26316;55.976;37.140;2023-03-03T08:46:45;3.63;;;1.80;;
40609;SDS011;26316;55.976;37.140;2023-03-03T08:49:11;2.13;;;1.40;;
40609;SDS011;26316;55.976;37.140;2023-03-03T08:51:37;3.30;;;1.48;;
40609;SDS011;26316;55.976;37.140;2023-03-03T08:54:03;4.43;;;1.50;;
40609;SDS011;26316;55.976;37.140;2023-03-03T08:56:28;2.83;;;1.40;;
40609;SDS011;26316;55.976;37.140;2023-03-03T08:58:54;7.40;;;2.13;;
40609;SDS011;26316;55.976;37.140;2023-03-03T09:01:20;5.13;;;1.85;;
40609;SDS011;26316;55.976;37.140;2023-03-03T09:03:45;4.43;;;1.67;;
40609;SDS011;26316;55.976;37.140;2023-03-03T09:06:11;4.30;;;1.67;;
40609;SDS011;26316;55.976;37.140;2023-03-03T09:08:37;5.10;;;1.73;;
40609;SDS011;26316;55.976;37.140;2023-03-03T09:11:08;3.42;;;1.58;;
40609;SDS011;26316;55.976;37.140;2023-03-03T09:13:37;4.32;;;1.70;;
40609;SDS011;26316;55.976;37.140;2023-03-03T09:16:06;4.70;;;1.60;;
40609;SDS011;26316;55.976;37.140;2023-03-03T09:18:38;3.88;;;1.70;;
40609;SDS011;26316;55.976;37.140;2023-03-03T09:21:15;3.22;;;1.80;;
40609;SDS011;26316;55.976;37.140;2023-03-03T09:23:56;5.50;;;1.65;;
40609;SDS011;26316;55.976;37.140;2023-03-03T09:31:44;5.13;;;1.10;;
40609;SDS011;26316;55.976;37.140;2023-03-03T09:37:00;4.97;;;1.50;;
40609;SDS011;26316;55.976;37.140;2023-03-03T09:39:27;2.50;;;1.48;;
40609;SDS011;26316;55.976;37.140;2023-03-03T09:44:29;2.95;;;1.30;;
40609;SDS011;26316;55.976;37.140;2023-03-03T10:01:02;5.70;;;2.03;;
40609;SDS011;26316;55.976;37.140;2023-03-03T10:19:39;5.53;;;1.73;;
40609;SDS011;26316;55.976;37.140;2023-03-03T10:25:02;4.75;;;1.63;;
40609;SDS011;26316;55.976;37.140;2023-03-03T10:30:31;5.50;;;2.05;;
40609;SDS011;26316;55.976;37.140;2023-03-03T10:51:46;3.13;;;1.38;;
40609;SDS011;26316;55.976;37.140;2023-03-03T11:00:30;7.45;;;1.85;;
40609;SDS011;26316;55.976;37.140;2023-03-03T11:05:50;4.47;;;1.73;;
40609;SDS011;26316;55.976;37.140;2023-03-03T11:08:35;3.90;;;1.98;;
40609;SDS011;26316;55.976;37.140;2023-03-03T11:14:04;2.50;;;1.60;;
40609;SDS011;26316;55.976;37.140;2023-03-03T11:19:29;2.90;;;1.20;;
40609;SDS011;26316;55.976;37.140;2023-03-03T11:37:03;3.42;;;1.38;;
40609;SDS011;26316;55.976;37.140;2023-03-03T11:39:31;2.75;;;1.25;;
40609;SDS011;26316;55.976;37.140;2023-03-03T11:49:46;1.75;;;1.05;;
40609;SDS011;26316;55.976;37.140;2023-03-03T12:00:37;3.42;;;1.33;;
40609;SDS011;26316;55.976;37.140;2023-03-03T12:16:46;4.82;;;1.08;;
40609;SDS011;26316;55.976;37.140;2023-03-03T12:19:24;2.67;;;0.88;;
40609;SDS011;26316;55.976;37.140;2023-03-03T12:24:50;2.78;;;1.30;;
40609;SDS011;26316;55.976;37.140;2023-03-03T12:38:48;2.03;;;1.15;;
40609;SDS011;26316;55.976;37.140;2023-03-03T12:41:37;4.47;;;1.50;;
40609;SDS011;26316;55.976;37.140;2023-03-03T12:44:17;2.55;;;1.30;;
40609;SDS011;26316;55.976;37.140;2023-03-03T12:57:55;4.65;;;1.50;;
40609;SDS011;26316;55.976;37.140;2023-03-03T13:00:27;4.30;;;1.30;;
40609;SDS011;26316;55.976;37.140;2023-03-03T13:03:27;2.40;;;1.48;;
40609;SDS011;26316;55.976;37.140;2023-03-03T13:05:57;2.35;;;1.08;;
40609;SDS011;26316;55.976;37.140;2023-03-03T13:13:44;3.13;;;1.00;;
40609;SDS011;26316;55.976;37.140;2023-03-03T13:16:24;3.97;;;1.88;;
40609;SDS011;26316;55.976;37.140;2023-03-03T13:26:43;4.45;;;2.10;;
40609;SDS011;26316;55.976;37.140;2023-03-03T13:29:32;3.47;;;2.10;;
40609;SDS011;26316;55.976;37.140;2023-03-03T13:32:02;4.05;;;2.10;;
40609;SDS011;26316;55.976;37.140;2023-03-03T13:37:26;4.32;;;1.83;;
40609;SDS011;26316;55.976;37.140;2023-03-03T13:40:05;3.75;;;1.95;;
40609;SDS011;26316;55.976;37.140;2023-03-03T13:42:44;3.45;;;1.83;;
40609;SDS011;26316;55.976;37.140;2023-03-03T13:45:17;4.15;;;2.00;;
40609;SDS011;26316;55.976;37.140;2023-03-03T13:47:47;2.85;;;1.55;;
40609;SDS011;26316;55.976;37.140;2023-03-03T13:58:39;3.75;;;1.75;;
40609;SDS011;26316;55.976;37.140;2023-03-03T14:01:16;4.40;;;1.88;;
40609;SDS011;26316;55.976;37.140;2023-03-03T14:06:53;5.35;;;2.10;;
40609;SDS011;26316;55.976;37.140;2023-03-03T14:11:59;2.67;;;1.60;;
40609;SDS011;26316;55.976;37.140;2023-03-03T14:19:51;2.15;;;1.50;;
40609;SDS011;26316;55.976;37.140;2023-03-03T14:22:52;4.15;;;1.58;;
40609;SDS011;26316;55.976;37.140;2023-03-03T14:25:20;2.10;;;1.00;;
40609;SDS011;26316;55.976;37.140;2023-03-03T14:33:32;5.53;;;2.05;;
40609;SDS011;26316;55.976;37.140;2023-03-03T14:35:36;5.25;;;2.53;;
40609;SDS011;26316;55.976;37.140;2023-03-03T14:38:05;3.70;;;1.73;;
40609;SDS011;26316;55.976;37.140;2023-03-03T14:40:35;4.30;;;2.10;;
40609;SDS011;26316;55.976;37.140;2023-03-03T14:45:51;4.60;;;1.95;;
40609;SDS011;26316;55.976;37.140;2023-03-03T14:50:58;8.18;;;1.80;;
40609;SDS011;26316;55.976;37.140;2023-03-03T14:56:52;6.68;;;2.85;;
40609;SDS011;26316;55.976;37.140;2023-03-03T14:59:21;2.97;;;1.47;;
40609;SDS011;26316;55.976;37.140;2023-03-03T15:01:56;2.17;;;1.50;;
40609;SDS011;26316;55.976;37.140;2023-03-03T15:04:24;3.67;;;1.50;;
40609;SDS011;26316;55.976;37.140;2023-03-03T15:06:52;3.50;;;1.40;;
40609;SDS011;26316;55.976;37.140;2023-03-03T15:12:01;5.30;;;1.48;;
40609;SDS011;26316;55.976;37.140;2023-03-03T15:14:43;5.90;;;1.73;;
40609;SDS011;26316;55.976;37.140;2023-03-03T15:17:52;5.45;;;1.45;;
40609;SDS011;26316;55.976;37.140;2023-03-03T15:37:41;5.95;;;2.50;;
40609;SDS011;26316;55.976;37.140;2023-03-03T15:43:05;7.32;;;2.90;;
40609;SDS011;26316;55.976;37.140;2023-03-03T15:51:02;5.97;;;3.20;;
40609;SDS011;26316;55.976;37.140;2023-03-03T15:59:16;6.60;;;3.22;;
40609;SDS011;26316;55.976;37.140;2023-03-03T16:04:32;8.55;;;3.05;;
40609;SDS011;26316;55.976;37.140;2023-03-03T16:07:16;8.68;;;2.90;;
40609;SDS011;26316;55.976;37.140;2023-03-03T16:20:54;4.65;;;2.05;;
40609;SDS011;26316;55.976;37.140;2023-03-03T16:23:45;5.78;;;2.33;;
40609;SDS011;26316;55.976;37.140;2023-03-03T16:26:17;5.32;;;2.70;;
40609;SDS011;26316;55.976;37.140;2023-03-03T16:28:54;6.00;;;2.40;;
40609;SDS011;26316;55.976;37.140;2023-03-03T16:31:35;6.65;;;2.00;;
40609;SDS011;26316;55.976;37.140;2023-03-03T16:50:38;7.57;;;2.60;;
40609;SDS011;26316;55.976;37.140;2023-03-03T16:59:02;5.60;;;2.20;;
40609;SDS011;26316;55.976;37.140;2023-03-03T17:02:02;6.72;;;2.53;;
40609;SDS011;26316;55.976;37.140;2023-03-03T17:05:10;3.85;;;2.20;;
40609;SDS011;26316;55.976;37.140;2023-03-03T17:10:18;8.95;;;4.40;;
40609;SDS011;26316;55.976;37.140;2023-03-03T17:17:51;8.02;;;3.10;;
40609;SDS011;26316;55.976;37.140;2023-03-03T17:20:50;4.80;;;2.30;;
40609;SDS011;26316;55.976;37.140;2023-03-03T17:23:31;6.00;;;2.00;;
40609;SDS011;26316;55.976;37.140;2023-03-03T17:36:43;2.90;;;2.00;;
40609;SDS011;26316;55.976;37.140;2023-03-03T17:41:55;3.47;;;2.05;;
40609;SDS011;26316;55.976;37.140;2023-03-03T17:47:09;4.07;;;2.15;;
40609;SDS011;26316;55.976;37.140;2023-03-03T17:52:28;5.05;;;2.28;;
40609;SDS011;26316;55.976;37.140;2023-03-03T18:11:48;4.65;;;2.25;;
40609;SDS011;26316;55.976;37.140;2023-03-03T18:22:56;3.97;;;1.80;;
40609;SDS011;26316;55.976;37.140;2023-03-03T18:25:23;4.88;;;1.75;;
40609;SDS011;26316;55.976;37.140;2023-03-03T18:33:41;6.20;;;1.90;;
40609;SDS011;26316;55.976;37.140;2023-03-03T18:38:52;4.93;;;2.25;;
40609;SDS011;26316;55.976;37.140;2023-03-03T18:41:26;6.80;;;2.83;;
40609;SDS011;26316;55.976;37.140;2023-03-03T18:49:02;4.70;;;2.33;;
40609;SDS011;26316;55.976;37.140;2023-03-03T18:54:17;5.90;;;2.50;;
40609;SDS011;26316;55.976;37.140;2023-03-03T19:02:19;6.53;;;2.80;;
40609;SDS011;26316;55.976;37.140;2023-03-03T19:10:04;5.35;;;2.50;;
40609;SDS011;26316;55.976;37.140;2023-03-03T19:17:55;6.22;;;3.03;;
40609;SDS011;26316;55.976;37.140;2023-03-03T19:20:23;4.72;;;2.75;;
40609;SDS011;26316;55.976;37.140;2023-03-03T19:22:51;8.63;;;2.92;;
40609;SDS011;26316;55.976;37.140;2023-03-03T19:25:26;5.55;;;2.80;;
40609;SDS011;26316;55.976;37.140;2023-03-03T19:27:58;4.32;;;2.20;;
40609;SDS011;26316;55.976;37.140;2023-03-03T19:49:41;6.05;;;2.97;;
40609;SDS011;26316;55.976;37.140;2023-03-03T19:52:17;6.40;;;3.38;;
40609;SDS011;26316;55.976;37.140;2023-03-03T20:13:15;7.40;;;2.38;;
40609;SDS011;26316;55.976;37.140;2023-03-03T20:18:42;5.82;;;2.75;;
40609;SDS011;26316;55.976;37.140;2023-03-03T20:23:53;8.07;;;2.72;;
40609;SDS011;26316;55.976;37.140;2023-03-03T20:26:48;8.98;;;2.90;;
40609;SDS011;26316;55.976;37.140;2023-03-03T20:43:19;8.88;;;3.78;;
40609;SDS011;26316;55.976;37.140;2023-03-03T20:51:03;9.48;;;3.42;;
40609;SDS011;26316;55.976;37.140;2023-03-03T20:56:38;7.38;;;3.97;;
40609;SDS011;26316;55.976;37.140;2023-03-03T21:04:33;9.70;;;4.17;;
40609;SDS011;26316;55.976;37.140;2023-03-03T21:07:02;10.13;;;4.03;;
40609;SDS011;26316;55.976;37.140;2023-03-03T21:14:27;8.05;;;3.95;;
40609;SDS011;26316;55.976;37.140;2023-03-03T21:16:55;7.57;;;3.80;;
40609;SDS011;26316;55.976;37.140;2023-03-03T21:19:29;10.20;;;4.07;;
40609;SDS011;26316;55.976;37.140;2023-03-03T21:21:56;10.73;;;4.05;;
40609;SDS011;26316;55.976;37.140;2023-03-03T21:24:23;8.65;;;3.80;;
40609;SDS011;26316;55.976;37.140;2023-03-03T21:30:00;5.95;;;2.72;;
40609;SDS011;26316;55.976;37.140;2023-03-03T21:32:38;5.30;;;3.00;;
40609;SDS011;26316;55.976;37.140;2023-03-03T21:35:06;5.65;;;2.97;;
40609;SDS011;26316;55.976;37.140;2023-03-03T21:37:41;7.50;;;3.70;;
40609;SDS011;26316;55.976;37.140;2023-03-03T21:40:13;10.45;;;3.60;;
40609;SDS011;26316;55.976;37.140;2023-03-03T21:42:53;5.93;;;2.88;;
40609;SDS011;26316;55.976;37.140;2023-03-03T21:45:23;9.35;;;3.47;;
40609;SDS011;26316;55.976;37.140;2023-03-03T21:47:50;4.95;;;2.65;;
40609;SDS011;26316;55.976;37.140;2023-03-03T21:50:16;5.93;;;2.38;;
40609;SDS011;26316;55.976;37.140;2023-03-03T21:52:46;5.85;;;3.25;;
40609;SDS011;26316;55.976;37.140;2023-03-03T21:55:12;4.78;;;2.65;;
40609;SDS011;26316;55.976;37.140;2023-03-03T21:57:38;6.15;;;2.50;;
40609;SDS011;26316;55.976;37.140;2023-03-03T22:00:04;5.15;;;2.40;;
40609;SDS011;26316;55.976;37.140;2023-03-03T22:04:59;4.18;;;2.42;;
40609;SDS011;26316;55.976;37.140;2023-03-03T22:07:28;4.78;;;2.40;;
40609;SDS011;26316;55.976;37.140;2023-03-03T22:09:54;5.63;;;2.33;;
40609;SDS011;26316;55.976;37.140;2023-03-03T22:12:20;4.55;;;2.63;;
40609;SDS011;26316;55.976;37.140;2023-03-03T22:14:46;5.03;;;2.38;;
40609;SDS011;26316;55.976;37.140;2023-03-03T22:17:11;5.78;;;2.60;;
40609;SDS011;26316;55.976;37.140;2023-03-03T22:19:37;5.65;;;2.53;;
40609;SDS011;26316;55.976;37.140;2023-03-03T22:22:03;6.07;;;2.50;;
40609;SDS011;26316;55.976;37.140;2023-03-03T22:24:29;5.60;;;2.30;;
40609;SDS011;26316;55.976;37.140;2023-03-03T22:26:55;5.38;;;2.40;;
40609;SDS011;26316;55.976;37.140;2023-03-03T22:29:21;5.78;;;2.83;;
40609;SDS011;26316;55.976;37.140;2023-03-03T22:31:47;5.30;;;3.00;;
40609;SDS011;26316;55.976;37.140;2023-03-03T22:34:14;5.75;;;2.83;;
40609;SDS011;26316;55.976;37.140;2023-03-03T22:36:40;5.50;;;2.65;;
40609;SDS011;26316;55.976;37.140;2023-03-03T22:39:05;5.95;;;2.88;;